Time;durP1;ratioP1;P1;durP2;ratioP2;P2;SDS_P1;SDS_P2;PMS_P1;PMS_P2;Temp;Humidity;BMP_temperature;BMP_pressure;BME280_temperature;BME280_humidity;BME280_pressure;Samples;Min_cycle;Max_cycle;Signal;HPM_P1;HPM_P2
2023/09/19 00:00:25;;;;;;;1.80;0.70;;;13.20;99.90;;;;;;4971356;28;20074;-70
2023/09/19 00:03:01;;;;;;;3.17;0.50;;;13.20;99.90;;;;;;4971578;28;20514;-69
2023/09/19 00:05:34;;;;;;;1.85;0.50;;;13.20;99.90;;;;;;4986701;28;20053;-70
2023/09/19 00:08:02;;;;;;;1.75;0.45;;;13.20;99.90;;;;;;4971477;28;20046;-70
2023/09/19 00:10:30;;;;;;;0.68;0.38;;;13.20;99.90;;;;;;4971116;28;20042;-70
2023/09/19 00:12:58;;;;;;;3.35;0.68;;;13.10;99.90;;;;;;4970189;28;20049;-70
2023/09/19 00:15:28;;;;;;;0.50;0.40;;;13.10;99.90;;;;;;4970934;28;20042;-70
2023/09/19 00:17:54;;;;;;;;;;;13.10;99.90;;;;;;4971346;28;20046;-70
2023/09/19 00:20:22;;;;;;;0.70;0.30;;;13.10;99.90;;;;;;4965529;28;19937;-70
2023/09/19 00:22:51;;;;;;;1.42;0.57;;;13.10;99.90;;;;;;4971256;28;20291;-70
2023/09/19 00:25:18;;;;;;;3.33;0.80;;;13.10;99.90;;;;;;4970830;28;20551;-70
2023/09/19 00:27:44;;;;;;;2.08;0.82;;;13.10;99.90;;;;;;4970148;28;20072;-69
2023/09/19 00:30:21;;;;;;;0.43;0.30;;;13.10;99.90;;;;;;4955025;28;20415;-70
2023/09/19 00:32:54;;;;;;;1.10;0.63;;;13.00;99.90;;;;;;4970441;28;20593;-70
2023/09/19 00:35:27;;;;;;;1.15;0.35;;;13.00;99.90;;;;;;4971092;28;20040;-70
2023/09/19 00:37:53;;;;;;;0.93;0.55;;;13.00;99.90;;;;;;4971007;28;20112;-70
2023/09/19 00:40:21;;;;;;;1.77;0.65;;;13.00;99.90;;;;;;4954407;28;20034;-70
2023/09/19 00:42:48;;;;;;;1.48;0.50;;;13.00;99.90;;;;;;4955039;28;20097;-70
2023/09/19 00:45:16;;;;;;;0.75;0.52;;;12.90;99.90;;;;;;4970818;28;20047;-70
2023/09/19 00:47:49;;;;;;;1.15;0.45;;;12.90;99.90;;;;;;4950929;28;20062;-70
2023/09/19 00:50:21;;;;;;;0.90;0.40;;;12.90;99.90;;;;;;4951545;28;20039;-70
2023/09/19 00:52:50;;;;;;;0.45;0.22;;;12.80;99.90;;;;;;4952689;28;20039;-70
2023/09/19 00:55:19;;;;;;;0.85;0.32;;;12.80;99.90;;;;;;4953784;28;20046;-71
2023/09/19 00:57:45;;;;;;;3.53;0.60;;;12.80;99.90;;;;;;4970766;28;20057;-70
2023/09/19 01:00:15;;;;;;;1.52;0.47;;;12.80;99.90;;;;;;4970672;28;20482;-70
2023/09/19 01:02:42;;;;;;;;;;;12.70;99.90;;;;;;4954478;28;20405;-70
2023/09/19 01:05:09;;;;;;;0.60;0.30;;;12.70;99.90;;;;;;4972948;28;19927;-70
2023/09/19 01:07:36;;;;;;;0.10;0.10;;;12.70;99.90;;;;;;4973189;28;20074;-70
2023/09/19 01:10:09;;;;;;;0.52;0.38;;;12.70;99.90;;;;;;4974092;28;20421;-71
2023/09/19 01:12:53;;;;;;;0.65;0.35;;;12.60;99.90;;;;;;4989862;28;20042;-70
2023/09/19 01:15:29;;;;;;;1.25;0.30;;;12.60;99.90;;;;;;4971355;28;20038;-70
2023/09/19 01:18:14;;;;;;;2.33;0.47;;;12.60;99.90;;;;;;4966272;28;20050;-70
2023/09/19 01:20:49;;;;;;;0.65;0.30;;;12.60;99.90;;;;;;4973378;28;20260;-70
2023/09/19 01:23:43;;;;;;;0.40;0.30;;;12.50;99.90;;;;;;4957138;28;20176;-70
2023/09/19 01:26:30;;;;;;;0.93;0.60;;;12.50;99.90;;;;;;4973320;28;20080;-70
2023/09/19 01:29:32;;;;;;;0.65;0.30;;;12.50;99.90;;;;;;4946046;28;20065;-70
2023/09/19 01:32:04;;;;;;;4.30;0.35;;;12.50;99.90;;;;;;4954346;28;20047;-70
2023/09/19 01:34:50;;;;;;;1.20;0.20;;;12.40;99.90;;;;;;4954017;28;20092;-70
2023/09/19 01:37:20;;;;;;;2.85;0.93;;;12.40;99.90;;;;;;4953889;28;20465;-70
2023/09/19 01:39:53;;;;;;;1.50;0.43;;;12.40;99.90;;;;;;4954177;28;20506;-71
2023/09/19 01:42:41;;;;;;;1.08;0.63;;;12.40;99.90;;;;;;4960674;28;20042;-70
2023/09/19 01:45:45;;;;;;;0.32;0.20;;;12.40;99.90;;;;;;4973783;28;20433;-70
2023/09/19 01:48:35;;;;;;;2.45;0.30;;;12.40;99.90;;;;;;4967402;28;20621;-70
2023/09/19 01:51:05;;;;;;;1.73;0.93;;;12.40;99.90;;;;;;5002261;28;20038;-70
2023/09/19 01:53:51;;;;;;;2.60;0.50;;;12.30;99.90;;;;;;4972916;28;20188;-70
2023/09/19 01:56:25;;;;;;;1.92;0.60;;;12.30;99.90;;;;;;4988768;28;20366;-70
2023/09/19 01:58:56;;;;;;;3.35;0.40;;;12.40;99.90;;;;;;4956420;28;20142;-70
2023/09/19 02:01:24;;;;;;;4.28;0.38;;;12.40;99.90;;;;;;4973117;28;20088;-71
2023/09/19 02:03:50;;;;;;;0.75;0.30;;;12.40;99.90;;;;;;4972604;28;20073;-70
2023/09/19 02:06:18;;;;;;;2.97;0.68;;;12.50;99.90;;;;;;4973235;28;20136;-70
2023/09/19 02:08:47;;;;;;;3.30;0.50;;;12.50;99.90;;;;;;4972935;28;20076;-70
2023/09/19 02:11:13;;;;;;;1.33;0.52;;;12.50;99.90;;;;;;4989929;28;20343;-70
2023/09/19 02:13:40;;;;;;;0.40;0.20;;;12.50;99.90;;;;;;4973135;28;20050;-70
2023/09/19 02:16:09;;;;;;;0.95;0.43;;;12.50;99.90;;;;;;4972563;28;20390;-70
2023/09/19 02:18:34;;;;;;;2.72;0.75;;;12.50;99.90;;;;;;4972204;28;20043;-70
2023/09/19 02:21:04;;;;;;;2.08;0.50;;;12.50;99.90;;;;;;4990083;28;20042;-70
2023/09/19 02:23:30;;;;;;;0.50;0.30;;;12.50;99.90;;;;;;4965684;28;20070;-70
2023/09/19 02:26:03;;;;;;;1.48;0.93;;;12.50;99.90;;;;;;4971953;28;20125;-70
2023/09/19 02:28:32;;;;;;;0.88;0.63;;;12.50;99.90;;;;;;4972556;28;20108;-70
2023/09/19 02:30:58;;;;;;;0.98;0.75;;;12.50;99.90;;;;;;4972927;28;20041;-70
2023/09/19 02:33:24;;;;;;;6.60;0.45;;;12.60;99.90;;;;;;4972260;28;20457;-70
2023/09/19 02:35:57;;;;;;;4.28;0.30;;;12.60;99.90;;;;;;4956598;28;20129;-71
2023/09/19 02:38:24;;;;;;;0.55;0.38;;;12.70;99.90;;;;;;4956675;28;20046;-72
2023/09/19 02:40:51;;;;;;;2.22;0.70;;;12.80;99.90;;;;;;4955851;28;20049;-70
2023/09/19 02:43:17;;;;;;;2.17;0.20;;;12.80;99.90;;;;;;4972679;28;20065;-71
2023/09/19 02:45:42;;;;;;;3.08;0.85;;;12.90;99.90;;;;;;4972228;28;20046;-71
2023/09/19 02:48:08;;;;;;;0.15;0.15;;;12.90;99.90;;;;;;4972562;28;20376;-71
2023/09/19 02:50:34;;;;;;;0.35;0.20;;;13.00;99.90;;;;;;4972501;28;20440;-70
2023/09/19 02:53:00;;;;;;;4.15;0.70;;;13.00;99.90;;;;;;4955677;28;20046;-72
2023/09/19 02:55:26;;;;;;;4.75;0.47;;;13.10;99.90;;;;;;4972324;28;20083;-70
2023/09/19 02:57:54;;;;;;;1.45;0.50;;;13.10;99.90;;;;;;4971813;28;20046;-70
2023/09/19 03:00:21;;;;;;;3.90;0.60;;;13.10;99.90;;;;;;4971285;28;20372;-71
2023/09/19 03:02:55;;;;;;;1.42;0.77;;;13.10;99.90;;;;;;4972203;28;20058;-72
2023/09/19 03:05:23;;;;;;;2.17;0.75;;;13.10;99.90;;;;;;4956138;28;20049;-71
2023/09/19 03:07:50;;;;;;;2.00;0.68;;;13.00;99.90;;;;;;4955566;28;20406;-70
2023/09/19 03:10:20;;;;;;;3.65;1.15;;;13.00;99.90;;;;;;4956210;28;20057;-71
2023/09/19 03:12:46;;;;;;;;;;;13.00;99.90;;;;;;4972631;28;20057;-71
2023/09/19 03:15:15;;;;;;;1.15;0.40;;;12.90;99.90;;;;;;4971638;28;20288;-70
2023/09/19 03:17:45;;;;;;;2.72;0.47;;;12.90;99.90;;;;;;4972097;28;20046;-70
2023/09/19 03:20:13;;;;;;;1.95;0.40;;;12.90;99.90;;;;;;4971423;28;20077;-71
2023/09/19 03:22:40;;;;;;;1.95;0.35;;;12.90;99.90;;;;;;4988490;28;20043;-71
2023/09/19 03:25:07;;;;;;;0.70;0.30;;;12.90;99.90;;;;;;4971606;28;20057;-70
2023/09/19 03:27:37;;;;;;;1.45;0.30;;;12.90;99.90;;;;;;4970541;28;20398;-71
2023/09/19 03:30:13;;;;;;;2.30;0.57;;;12.90;99.90;;;;;;4971834;28;20171;-70
2023/09/19 03:32:49;;;;;;;0.63;0.30;;;12.80;99.90;;;;;;4971941;28;20034;-70
2023/09/19 03:35:16;;;;;;;2.08;0.20;;;12.90;99.90;;;;;;4971126;28;20041;-71
2023/09/19 03:37:42;;;;;;;1.80;0.70;;;12.90;99.90;;;;;;4972009;28;20103;-69
2023/09/19 03:40:12;;;;;;;0.38;0.22;;;12.90;99.90;;;;;;4955554;28;20038;-71
2023/09/19 03:42:41;;;;;;;1.65;0.35;;;13.00;99.90;;;;;;4971324;28;20472;-69
2023/09/19 03:45:13;;;;;;;1.08;0.20;;;13.10;99.90;;;;;;4971424;28;20049;-70
2023/09/19 03:47:40;;;;;;;0.70;0.38;;;13.10;99.90;;;;;;4988842;28;20684;-70
2023/09/19 03:50:10;;;;;;;3.92;0.65;;;13.20;99.90;;;;;;4971146;28;20117;-69
2023/09/19 03:52:36;;;;;;;1.00;0.43;;;13.30;99.90;;;;;;4971452;28;20038;-70
2023/09/19 03:55:04;;;;;;;0.68;0.50;;;13.30;99.90;;;;;;4971835;28;20535;-69
2023/09/19 03:57:30;;;;;;;2.63;0.30;;;13.30;99.90;;;;;;4970998;28;20042;-71
2023/09/19 03:59:56;;;;;;;2.65;0.70;;;13.40;99.90;;;;;;4971491;28;20057;-70
2023/09/19 04:02:22;;;;;;;0.60;0.40;;;13.40;99.90;;;;;;4970612;28;20482;-70
2023/09/19 04:04:48;;;;;;;3.13;0.40;;;13.40;99.90;;;;;;4954824;28;20065;-69
2023/09/19 04:07:14;;;;;;;4.20;0.65;;;13.40;99.90;;;;;;4971455;28;20050;-69
2023/09/19 04:09:40;;;;;;;2.67;0.75;;;13.30;99.90;;;;;;4970924;28;20050;-69
2023/09/19 04:12:08;;;;;;;0.57;0.45;;;13.30;99.90;;;;;;4971452;28;20497;-69
2023/09/19 04:14:34;;;;;;;2.42;0.40;;;13.30;99.90;;;;;;4971245;28;20043;-68
2023/09/19 04:17:00;;;;;;;1.33;0.60;;;13.20;99.90;;;;;;4970386;28;20042;-69
2023/09/19 04:19:26;;;;;;;1.20;0.52;;;13.20;99.90;;;;;;4971361;28;20041;-69
2023/09/19 04:21:52;;;;;;;2.58;0.30;;;13.20;99.90;;;;;;4971282;28;20053;-69
2023/09/19 04:24:19;;;;;;;1.35;0.60;;;13.30;99.90;;;;;;4970548;28;20513;-67
2023/09/19 04:26:45;;;;;;;0.88;0.45;;;13.30;99.90;;;;;;4987086;28;20125;-67
2023/09/19 04:29:14;;;;;;;2.08;0.50;;;13.30;99.90;;;;;;4987110;28;20054;-67
2023/09/19 04:31:40;;;;;;;3.53;0.40;;;13.30;99.90;;;;;;4954576;28;20038;-67
2023/09/19 04:34:08;;;;;;;1.58;0.40;;;13.30;99.90;;;;;;4970914;28;20034;-68
2023/09/19 04:36:36;;;;;;;0.88;0.40;;;13.20;99.90;;;;;;4971199;28;20413;-68
2023/09/19 04:39:05;;;;;;;4.25;1.13;;;13.20;99.90;;;;;;4954019;28;20042;-68
2023/09/19 04:41:31;;;;;;;2.25;0.73;;;13.10;99.90;;;;;;4971302;28;20070;-67
2023/09/19 04:43:56;;;;;;;0.77;0.60;;;13.10;99.90;;;;;;4970619;28;20449;-68
2023/09/19 04:46:22;;;;;;;1.23;0.60;;;13.00;99.90;;;;;;4987632;28;20069;-68
2023/09/19 04:48:48;;;;;;;0.55;0.43;;;13.00;99.90;;;;;;4970921;28;20409;-68
2023/09/19 04:51:15;;;;;;;2.58;0.55;;;13.00;99.90;;;;;;4970864;28;20374;-68
2023/09/19 04:53:41;;;;;;;2.10;1.05;;;12.90;99.90;;;;;;4969823;28;20099;-68
2023/09/19 04:56:07;;;;;;;0.95;0.55;;;12.90;99.90;;;;;;4970607;28;20039;-68
2023/09/19 04:58:33;;;;;;;3.88;0.43;;;12.90;99.90;;;;;;4970479;28;20047;-68
2023/09/19 05:00:59;;;;;;;0.63;0.20;;;12.90;99.90;;;;;;4987904;28;20049;-69
2023/09/19 05:03:25;;;;;;;2.45;0.43;;;12.90;99.90;;;;;;4970345;28;20042;-68
2023/09/19 05:05:51;;;;;;;0.30;0.28;;;12.90;99.90;;;;;;4969399;28;20128;-68
2023/09/19 05:08:16;;;;;;;4.03;1.00;;;12.90;99.90;;;;;;4970694;28;20035;-68
2023/09/19 05:10:42;;;;;;;3.78;0.50;;;13.00;99.90;;;;;;4970839;28;20506;-69
2023/09/19 05:13:08;;;;;;;2.30;0.45;;;13.00;99.90;;;;;;4969704;28;20547;-69
2023/09/19 05:15:35;;;;;;;1.80;0.77;;;12.90;99.90;;;;;;4989541;28;20028;-69
2023/09/19 05:18:01;;;;;;;0.95;0.40;;;12.90;99.90;;;;;;5072037;28;20052;-68
2023/09/19 05:20:32;;;;;;;2.08;0.50;;;12.90;99.90;;;;;;5003076;28;20046;-69
2023/09/19 05:23:03;;;;;;;3.00;0.40;;;12.90;99.90;;;;;;4970611;28;20053;-69
2023/09/19 05:25:32;;;;;;;1.02;0.57;;;12.90;99.90;;;;;;4970054;28;20504;-69
2023/09/19 05:27:58;;;;;;;0.70;0.40;;;12.90;99.90;;;;;;4969453;28;20057;-69
2023/09/19 05:30:27;;;;;;;0.77;0.50;;;12.90;99.90;;;;;;4970400;28;20061;-70
2023/09/19 05:32:54;;;;;;;2.42;0.75;;;12.90;99.90;;;;;;4970253;28;20053;-69
2023/09/19 05:35:21;;;;;;;3.22;0.50;;;12.90;99.90;;;;;;4969934;28;20121;-70
2023/09/19 05:37:50;;;;;;;0.63;0.60;;;12.80;99.90;;;;;;4970296;28;20058;-70
2023/09/19 05:40:17;;;;;;;1.95;0.60;;;12.80;99.90;;;;;;4987475;28;20081;-70
2023/09/19 05:42:43;;;;;;;2.22;0.60;;;12.80;99.90;;;;;;4969681;28;20094;-70
2023/09/19 05:45:13;;;;;;;1.63;0.35;;;12.80;99.90;;;;;;4987368;28;20129;-70
2023/09/19 05:47:45;;;;;;;3.78;0.40;;;12.90;99.90;;;;;;4969243;28;20137;-70
2023/09/19 05:50:11;;;;;;;1.42;0.68;;;12.90;99.90;;;;;;4954906;28;20100;-70
2023/09/19 05:52:37;;;;;;;3.40;1.08;;;12.90;99.90;;;;;;4990437;28;20597;-68
2023/09/19 05:55:06;;;;;;;1.27;0.70;;;12.90;99.90;;;;;;4972910;28;20034;-69
2023/09/19 05:57:32;;;;;;;2.03;0.97;;;12.90;99.90;;;;;;4957116;28;20038;-69
2023/09/19 05:59:59;;;;;;;3.58;0.63;;;13.00;99.90;;;;;;4973499;28;20042;-68
2023/09/19 06:02:28;;;;;;;1.52;0.80;;;13.00;99.90;;;;;;4990257;28;20498;-69
2023/09/19 06:04:55;;;;;;;3.55;0.50;;;13.10;99.90;;;;;;4973033;28;20052;-69
2023/09/19 06:07:25;;;;;;;2.22;0.60;;;13.10;99.90;;;;;;4956505;28;20046;-69
2023/09/19 06:09:53;;;;;;;6.95;0.70;;;13.20;99.90;;;;;;4972052;28;20477;-70
2023/09/19 06:12:19;;;;;;;2.17;0.75;;;13.30;99.90;;;;;;4972997;28;20053;-69
2023/09/19 06:14:46;;;;;;;1.55;0.30;;;13.40;99.90;;;;;;4973072;28;20042;-69
2023/09/19 06:17:11;;;;;;;0.20;0.20;;;13.40;99.90;;;;;;4972412;28;20053;-69
2023/09/19 06:19:37;;;;;;;1.20;0.40;;;13.50;99.90;;;;;;4973100;28;20046;-70
2023/09/19 06:22:03;;;;;;;3.03;0.68;;;13.60;99.90;;;;;;4973143;28;20069;-69
2023/09/19 06:24:30;;;;;;;2.47;0.52;;;13.60;99.90;;;;;;4972059;28;20059;-69
2023/09/19 06:26:56;;;;;;;3.53;0.82;;;13.60;99.90;;;;;;4972772;28;20046;-69
2023/09/19 06:29:24;;;;;;;4.50;0.75;;;13.60;99.90;;;;;;4972509;28;20046;-68
2023/09/19 06:31:51;;;;;;;2.15;0.57;;;13.60;99.90;;;;;;4972093;28;20089;-68
2023/09/19 06:34:18;;;;;;;1.50;0.40;;;13.60;99.90;;;;;;4972970;28;20046;-67
2023/09/19 06:36:44;;;;;;;3.72;0.73;;;13.60;99.90;;;;;;4956211;28;20035;-68
2023/09/19 06:39:10;;;;;;;2.83;0.75;;;13.60;99.90;;;;;;4990096;28;20050;-69
2023/09/19 06:41:39;;;;;;;3.58;0.88;;;13.60;99.90;;;;;;4972605;28;20078;-67
2023/09/19 06:44:05;;;;;;;0.95;0.20;;;13.60;99.90;;;;;;4989350;28;20043;-67
2023/09/19 06:46:34;;;;;;;2.67;0.70;;;13.70;99.90;;;;;;4990075;28;20045;-70
2023/09/19 06:49:06;;;;;;;1.40;0.30;;;13.80;99.90;;;;;;4972394;28;20050;-69
2023/09/19 06:51:34;;;;;;;4.05;0.40;;;13.90;99.90;;;;;;4972033;28;20078;-69
2023/09/19 06:54:01;;;;;;;1.58;0.70;;;14.00;99.90;;;;;;4971502;28;20053;-68
2023/09/19 06:56:27;;;;;;;1.48;0.93;;;14.00;99.90;;;;;;4972646;28;20034;-69
2023/09/19 06:58:53;;;;;;;1.50;0.68;;;14.10;99.90;;;;;;4989163;28;20551;-70
2023/09/19 07:01:19;;;;;;;1.88;0.50;;;14.10;99.90;;;;;;4972134;28;20042;-70
2023/09/19 07:03:46;;;;;;;2.88;0.50;;;14.10;99.90;;;;;;4972278;28;20046;-69
2023/09/19 07:06:11;;;;;;;5.93;0.60;;;14.10;99.90;;;;;;4968509;28;20053;-69
2023/09/19 07:08:38;;;;;;;1.13;0.60;;;14.10;99.90;;;;;;5019467;28;20042;-67
2023/09/19 07:11:06;;;;;;;1.55;0.65;;;14.20;99.90;;;;;;5032659;28;20396;-69
2023/09/19 07:13:32;;;;;;;3.05;0.50;;;14.10;99.90;;;;;;5030702;28;20042;-69
2023/09/19 07:16:01;;;;;;;1.42;0.85;;;14.10;99.90;;;;;;5056706;28;20127;-68
2023/09/19 07:18:26;;;;;;;3.30;0.77;;;14.20;99.90;;;;;;5029166;28;20695;-70
2023/09/19 07:21:05;;;;;;;2.17;0.47;;;14.30;99.90;;;;;;4967959;28;20046;-70
2023/09/19 07:23:34;;;;;;;0.30;0.20;;;14.40;99.90;;;;;;4956480;28;20115;-69
2023/09/19 07:26:05;;;;;;;4.25;0.73;;;14.50;99.90;;;;;;4988444;28;20058;-70
2023/09/19 07:28:31;;;;;;;1.10;0.55;;;14.60;99.90;;;;;;5084106;28;20130;-69
2023/09/19 07:30:57;;;;;;;0.80;0.50;;;14.80;99.90;;;;;;5073390;28;20064;-68
2023/09/19 07:33:26;;;;;;;7.38;1.50;;;14.90;99.90;;;;;;5072522;28;20048;-69
2023/09/19 07:35:52;;;;;;;2.50;0.60;;;15.00;99.90;;;;;;5073320;28;20595;-67
2023/09/19 07:38:18;;;;;;;2.63;0.70;;;15.00;99.90;;;;;;5073174;28;20188;-67
2023/09/19 07:40:44;;;;;;;1.08;0.47;;;14.90;99.90;;;;;;5072421;28;20047;-68
2023/09/19 07:43:09;;;;;;;2.70;0.88;;;14.90;99.90;;;;;;5073035;28;20044;-69
2023/09/19 07:45:36;;;;;;;1.38;0.75;;;14.90;99.90;;;;;;5073168;28;20122;-71
2023/09/19 07:48:04;;;;;;;4.15;0.82;;;15.00;99.90;;;;;;5063061;28;20472;-68
2023/09/19 07:50:30;;;;;;;0.50;0.45;;;15.00;99.90;;;;;;4985993;28;20090;-69
2023/09/19 07:52:56;;;;;;;3.30;1.42;;;15.00;99.90;;;;;;4986996;28;20034;-67
2023/09/19 07:55:25;;;;;;;3.03;0.95;;;15.10;99.90;;;;;;4970913;28;20123;-66
2023/09/19 07:57:51;;;;;;;5.23;1.10;;;15.20;99.90;;;;;;4971529;28;20077;-68
2023/09/19 08:00:17;;;;;;;1.33;0.65;;;15.30;99.90;;;;;;4971311;28;20057;-68
2023/09/19 08:02:43;;;;;;;1.48;0.52;;;15.40;99.90;;;;;;4970749;28;20042;-70
2023/09/19 08:05:11;;;;;;;2.72;0.57;;;15.40;99.90;;;;;;4971371;28;20130;-70
2023/09/19 08:07:37;;;;;;;3.20;1.13;;;15.60;99.90;;;;;;4970635;28;20054;-70
2023/09/19 08:10:07;;;;;;;5.03;0.63;;;15.80;99.90;;;;;;4971157;28;20042;-68
2023/09/19 08:12:35;;;;;;;;;;;16.20;99.90;;;;;;4970447;28;20102;-68
2023/09/19 08:15:05;;;;;;;5.88;0.93;;;16.50;99.90;;;;;;5071888;28;19921;-67
2023/09/19 08:17:34;;;;;;;3.15;1.92;;;16.70;99.90;;;;;;4955233;28;20046;-67
2023/09/19 08:20:03;;;;;;;1.13;0.55;;;16.90;99.90;;;;;;4971061;28;20042;-65
2023/09/19 08:22:28;;;;;;;3.85;0.50;;;17.00;99.90;;;;;;4970463;28;20049;-67
2023/09/19 08:24:56;;;;;;;10.52;1.10;;;17.10;99.90;;;;;;4970755;28;20133;-66
2023/09/19 08:27:22;;;;;;;3.83;0.60;;;17.20;99.90;;;;;;4970999;28;20432;-66
2023/09/19 08:29:47;;;;;;;1.30;0.50;;;17.30;99.90;;;;;;4970872;28;20046;-67
2023/09/19 08:32:14;;;;;;;1.40;0.60;;;17.30;99.90;;;;;;4971165;28;20041;-68
2023/09/19 08:34:40;;;;;;;6.80;1.02;;;17.40;99.90;;;;;;4970828;28;20043;-66
2023/09/19 08:37:05;;;;;;;4.03;0.68;;;17.30;99.90;;;;;;4970610;28;20038;-69
2023/09/19 08:39:33;;;;;;;1.63;0.82;;;17.20;99.90;;;;;;4971052;28;20354;-69
2023/09/19 08:42:02;;;;;;;3.10;0.57;;;17.20;99.90;;;;;;4970957;28;20099;-68
2023/09/19 08:44:31;;;;;;;0.57;0.30;;;17.20;99.90;;;;;;4970617;28;20046;-62
2023/09/19 08:47:11;;;;;;;3.13;0.75;;;17.20;99.90;;;;;;4970763;28;20352;-62
2023/09/19 08:50:12;;;;;;;4.35;1.17;;;17.40;99.90;;;;;;4970056;28;20049;-68
2023/09/19 08:52:42;;;;;;;6.43;1.13;;;17.60;99.90;;;;;;4970317;28;20053;-67
2023/09/19 08:55:12;;;;;;;0.93;0.45;;;17.80;99.90;;;;;;4970587;28;20065;-69
2023/09/19 08:57:42;;;;;;;2.13;0.73;;;17.80;99.90;;;;;;4976925;28;20122;-70
2023/09/19 09:00:12;;;;;;;1.85;0.82;;;18.00;99.90;;;;;;4970712;28;20109;-62
2023/09/19 09:02:43;;;;;;;1.75;0.82;;;18.20;99.90;;;;;;4970813;28;20076;-62
2023/09/19 09:05:12;;;;;;;2.80;0.82;;;18.10;99.90;;;;;;4970044;28;20050;-67
2023/09/19 09:07:39;;;;;;;4.13;0.50;;;18.00;99.90;;;;;;4970766;28;20104;-68
2023/09/19 09:10:06;;;;;;;2.50;1.05;;;17.80;99.90;;;;;;4970631;28;20046;-66
2023/09/19 09:12:32;;;;;;;1.85;0.70;;;17.70;99.90;;;;;;4970244;28;20047;-66
2023/09/19 09:14:58;;;;;;;4.43;0.68;;;17.60;99.90;;;;;;4970172;28;20034;-63
2023/09/19 09:17:24;;;;;;;2.28;1.58;;;17.50;99.90;;;;;;4969644;28;20064;-60
2023/09/19 09:19:53;;;;;;;1.95;0.63;;;17.40;99.90;;;;;;4969780;28;20120;-68
2023/09/19 09:22:21;;;;;;;5.83;1.00;;;17.50;99.90;;;;;;4970596;28;20042;-68
2023/09/19 09:24:58;;;;;;;0.88;0.65;;;17.80;99.90;;;;;;4969954;28;20073;-69
2023/09/19 09:27:24;;;;;;;4.75;0.73;;;18.10;99.90;;;;;;4974078;28;20379;-67
2023/09/19 09:29:52;;;;;;;4.03;0.70;;;18.40;99.90;;;;;;4991237;28;20049;-65
2023/09/19 09:32:22;;;;;;;4.47;0.88;;;18.50;99.90;;;;;;4973089;28;20201;-67
2023/09/19 09:34:56;;;;;;;1.67;0.70;;;18.60;99.90;;;;;;4973747;28;20057;-67
2023/09/19 09:37:24;;;;;;;4.13;0.90;;;19.00;99.90;;;;;;4991231;28;20043;-67
2023/09/19 09:42:46;;;;;;;7.60;1.08;;;19.70;99.90;;;;;;4973400;28;20061;-67
2023/09/19 09:45:37;;;;;;;2.30;1.15;;;19.90;99.90;;;;;;4973604;28;20042;-67
2023/09/19 09:48:03;;;;;;;5.55;1.13;;;20.20;99.90;;;;;;4973245;28;20099;-68
2023/09/19 09:53:28;;;;;;;3.88;0.60;;;20.60;99.90;;;;;;4972569;28;20501;-66
2023/09/19 09:55:59;;;;;;;7.72;1.42;;;20.30;99.90;;;;;;4973339;28;20474;-68
2023/09/19 09:58:29;;;;;;;2.55;1.08;;;20.00;99.90;;;;;;4990612;28;20050;-67
2023/09/19 10:01:04;;;;;;;1.48;0.40;;;20.00;99.90;;;;;;4972830;28;20109;-67
2023/09/19 10:03:39;;;;;;;6.65;1.00;;;20.30;99.90;;;;;;4990711;28;20043;-67
2023/09/19 10:06:24;;;;;;;5.03;1.98;;;20.50;99.90;;;;;;4957415;28;20034;-66
2023/09/19 10:11:47;;;;;;;4.03;1.00;;;19.70;99.90;;;;;;4973583;28;20451;-67
2023/09/19 10:14:16;;;;;;;4.00;0.82;;;19.50;99.90;;;;;;4972798;28;20101;-66
2023/09/19 10:16:48;;;;;;;2.88;0.50;;;19.50;99.90;;;;;;4956887;28;20045;-64
2023/09/19 10:19:46;;;;;;;3.20;0.93;;;19.50;99.90;;;;;;4972067;28;20048;-69
2023/09/19 10:22:20;;;;;;;0.95;0.63;;;19.10;99.90;;;;;;4989970;28;20049;-65
2023/09/19 10:24:51;;;;;;;1.38;0.52;;;18.60;99.90;;;;;;5003450;28;20045;-68
2023/09/19 10:27:19;;;;;;;5.35;1.23;;;18.40;99.90;;;;;;5038090;28;20056;-68
2023/09/19 10:29:50;;;;;;;2.38;0.80;;;18.60;99.90;;;;;;5053871;28;20530;-67
2023/09/19 10:32:18;;;;;;;4.28;0.75;;;19.10;99.90;;;;;;5054776;28;20044;-68
2023/09/19 10:34:47;;;;;;;7.07;0.82;;;19.50;99.90;;;;;;5054283;28;20048;-68
2023/09/19 10:37:15;;;;;;;7.82;1.77;;;19.60;99.90;;;;;;5054111;28;20045;-69
2023/09/19 10:39:41;;;;;;;3.67;1.45;;;19.50;99.90;;;;;;5054431;28;20056;-70
2023/09/19 10:42:17;;;;;;;3.10;0.98;;;19.30;99.90;;;;;;5053777;28;20469;-70
2023/09/19 10:44:45;;;;;;;7.53;1.02;;;19.20;99.90;;;;;;5037828;28;20036;-69
2023/09/19 10:47:11;;;;;;;1.42;0.82;;;19.10;99.90;;;;;;5054439;28;20144;-66
2023/09/19 10:49:46;;;;;;;3.70;1.00;;;19.00;99.90;;;;;;5052862;28;20525;-70
2023/09/19 10:52:18;;;;;;;1.67;0.75;;;18.90;99.90;;;;;;5054382;28;20041;-68
2023/09/19 10:54:52;;;;;;;0.55;0.52;;;18.70;99.90;;;;;;5053925;28;20040;-67
2023/09/19 10:57:27;;;;;;;3.88;0.57;;;18.40;99.90;;;;;;5053513;28;20115;-67
2023/09/19 11:00:23;;;;;;;2.78;0.85;;;18.00;99.90;;;;;;5054305;28;20048;-66
2023/09/19 11:03:14;;;;;;;7.63;1.00;;;17.80;99.90;;;;;;5053779;28;20056;-68
2023/09/19 11:05:41;;;;;;;2.50;0.70;;;17.60;99.90;;;;;;5046947;28;20045;-69
2023/09/19 11:08:08;;;;;;;0.82;0.65;;;17.70;99.90;;;;;;5071827;28;20508;-69
2023/09/19 11:10:49;;;;;;;4.40;0.70;;;17.90;99.90;;;;;;5051502;28;20032;-64
2023/09/19 11:13:26;;;;;;;3.35;1.10;;;18.20;99.90;;;;;;5038811;28;20178;-67
2023/09/19 11:15:58;;;;;;;1.30;0.65;;;18.40;99.90;;;;;;5070132;28;20048;-68
2023/09/19 11:18:42;;;;;;;1.05;0.70;;;18.50;99.90;;;;;;5051257;28;20090;-67
2023/09/19 11:21:30;;;;;;;4.78;0.95;;;18.60;99.90;;;;;;5034571;28;20084;-69
2023/09/19 11:24:37;;;;;;;13.15;1.25;;;18.50;99.90;;;;;;5030936;28;20063;-67
2023/09/19 11:27:17;;;;;;;5.05;1.05;;;18.40;99.90;;;;;;5012060;28;20455;-69
2023/09/19 11:29:44;;;;;;;2.10;0.90;;;18.20;99.90;;;;;;5012200;28;20053;-68
2023/09/19 11:32:10;;;;;;;2.47;0.95;;;18.20;99.90;;;;;;5011792;28;20071;-67
2023/09/19 11:34:36;;;;;;;4.05;1.05;;;18.00;99.90;;;;;;5012143;28;20588;-66
2023/09/19 11:37:13;;;;;;;4.38;0.80;;;17.90;99.90;;;;;;5028923;28;20037;-65
2023/09/19 11:39:40;;;;;;;3.72;0.80;;;17.80;99.90;;;;;;5028097;28;20045;-67
2023/09/19 11:42:41;;;;;;;5.65;1.10;;;17.70;99.90;;;;;;5012413;28;20041;-68
2023/09/19 11:45:07;;;;;;;3.75;0.70;;;17.60;99.90;;;;;;5028055;28;20428;-66
2023/09/19 11:47:34;;;;;;;3.13;1.05;;;17.60;99.90;;;;;;5027882;28;20045;-68
2023/09/19 11:50:01;;;;;;;3.60;1.58;;;17.70;99.90;;;;;;5012197;28;20033;-68
2023/09/19 11:52:34;;;;;;;0.82;0.47;;;17.90;99.90;;;;;;5011656;28;20468;-67
2023/09/19 11:55:02;;;;;;;2.55;0.80;;;17.90;99.90;;;;;;5021170;28;20045;-66
2023/09/19 11:57:30;;;;;;;2.30;0.70;;;17.80;99.90;;;;;;5005921;28;20059;-68
2023/09/19 11:59:55;;;;;;;1.05;0.57;;;17.80;99.90;;;;;;4971598;28;20054;-65
2023/09/19 12:02:42;;;;;;;1.67;0.63;;;17.70;99.90;;;;;;4968985;28;20415;-65
2023/09/19 12:05:09;;;;;;;1.02;0.70;;;17.60;99.90;;;;;;4982525;28;20042;-67
2023/09/19 12:07:45;;;;;;;2.03;0.40;;;17.70;99.90;;;;;;4970767;28;20375;-69
2023/09/19 12:10:14;;;;;;;3.00;1.17;;;17.70;99.90;;;;;;4988924;28;20397;-69
2023/09/19 12:12:42;;;;;;;1.35;0.60;;;17.70;99.90;;;;;;4970860;28;20050;-69
2023/09/19 12:15:10;;;;;;;3.83;0.73;;;17.70;99.90;;;;;;4970710;28;20081;-68
2023/09/19 12:17:43;;;;;;;0.50;0.30;;;17.90;99.90;;;;;;4971237;28;20363;-65
2023/09/19 12:20:13;;;;;;;0.85;0.65;;;18.20;99.90;;;;;;4970313;28;20095;-66
2023/09/19 12:22:46;;;;;;;1.48;0.40;;;18.40;99.90;;;;;;4988305;28;20387;-68
2023/09/19 12:25:13;;;;;;;2.55;0.52;;;18.60;99.90;;;;;;4953780;28;20047;-70
2023/09/19 12:27:46;;;;;;;3.38;0.65;;;18.70;99.90;;;;;;4969955;28;20053;-67
2023/09/19 12:30:17;;;;;;;0.77;0.40;;;18.70;99.90;;;;;;4970802;28;20038;-68
2023/09/19 12:32:44;;;;;;;2.95;0.38;;;18.70;99.90;;;;;;4970897;28;20042;-67
2023/09/19 12:35:11;;;;;;;1.75;0.98;;;18.60;99.90;;;;;;4970162;28;20077;-66
2023/09/19 12:37:48;;;;;;;0.98;0.50;;;18.60;99.90;;;;;;4988580;28;20041;-67
2023/09/19 12:40:21;;;;;;;0.90;0.50;;;18.40;99.90;;;;;;4971038;28;20042;-67
2023/09/19 12:42:48;;;;;;;1.63;0.30;;;18.20;99.90;;;;;;4970348;28;20038;-63
2023/09/19 12:45:17;;;;;;;2.45;1.15;;;18.10;99.90;;;;;;4970542;28;20112;-68
2023/09/19 12:48:17;;;;;;;2.43;0.90;;;18.00;99.90;;;;;;4968953;28;20066;-66
2023/09/19 12:51:05;;;;;;;4.25;0.80;;;18.00;99.90;;;;;;4986922;28;20100;-69
2023/09/19 12:53:44;;;;;;;2.85;0.63;;;17.90;99.90;;;;;;4986934;28;20042;-67
2023/09/19 12:56:15;;;;;;;4.15;0.80;;;18.00;99.90;;;;;;4969983;28;20540;-67
2023/09/19 12:59:02;;;;;;;2.35;0.43;;;17.90;99.90;;;;;;4988553;28;20399;-66
2023/09/19 13:01:29;;;;;;;6.15;0.80;;;17.90;99.90;;;;;;4974170;28;20555;-67
2023/09/19 13:04:18;;;;;;;1.55;0.45;;;17.80;99.90;;;;;;4988586;28;20204;-68
2023/09/19 13:06:44;;;;;;;3.17;0.57;;;17.80;99.90;;;;;;5076085;28;20052;-66
2023/09/19 13:09:11;;;;;;;1.90;0.57;;;17.70;99.90;;;;;;5075463;28;20051;-67
2023/09/19 13:11:40;;;;;;;1.98;0.82;;;17.70;99.90;;;;;;5075899;28;20058;-68